This is the latest recevied weather packets stored in our database for station/object EUGENE. If no packets are shown the sender has not sent any weather packets the latest 10 day(s).
| Time | Temp. | Humidity | Pressure | Rain* | Wind** | Luminosity | Snow |
|---|---|---|---|---|---|---|---|
| 1777668125 | 19.44° C | 65% | 1016.5 hPa | 0 mm | - | - | - |
| 1777667225 | 18.89° C | 69% | 1016.7 hPa | 0 mm | - | - | - |
| 1777666325 | 18.89° C | 68% | 1016.9 hPa | 0 mm | - | - | - |
| 1777665425 | 17.78° C | 71% | 1017.1 hPa | 0 mm | - | - | - |
| 1777664525 | 17.78° C | 70% | 1017.4 hPa | 0 mm | - | - | - |
| 1777663625 | 17.22° C | 72% | 1017.5 hPa | 0 mm | - | - | - |
| 1777662725 | 16.11° C | 75% | 1017.7 hPa | 0 mm | - | - | - |
| 1777661825 | 16.11° C | 76% | 1017.9 hPa | 0 mm | - | - | - |
| 1777660924 | 15° C | 78% | 1017.8 hPa | 0 mm | - | - | - |
| 1777660024 | 13.89° C | 79% | 1017.8 hPa | 0 mm | - | - | - |
| 1777659124 | 14.44° C | 81% | 1017.9 hPa | 0 mm | - | - | - |
| 1777658225 | 13.33° C | 83% | 1017.9 hPa | 0 mm | - | - | - |
| 1777657325 | 13.33° C | 82% | 1017.9 hPa | 0 mm | - | - | - |
| 1777656426 | 12.78° C | 83% | 1017.9 hPa | 0 mm | - | - | - |
| 1777655525 | 12.78° C | 83% | 1017.9 hPa | 0 mm | - | - | - |
| 1777654624 | 12.78° C | 85% | 1017.9 hPa | 0 mm | - | - | - |
| 1777653725 | 12.78° C | 84% | 1017.8 hPa | 0 mm | - | - | - |
| 1777652824 | 12.22° C | 85% | 1017.9 hPa | 0 mm | - | - | - |
| 1777651925 | 12.22° C | 85% | 1017.8 hPa | 0 mm | - | - | - |
| 1777651024 | 12.22° C | 86% | 1017.7 hPa | 0 mm | - | - | - |
| 1777650124 | 12.22° C | 87% | 1017.7 hPa | 0 mm | - | - | - |
| 1777649224 | 11.67° C | 89% | 1017.8 hPa | 0 mm | - | - | - |
| 1777648324 | 11.11° C | 90% | 1017.9 hPa | 0 mm | - | - | - |
| 1777647425 | 11.11° C | 91% | 1017.8 hPa | 0 mm | - | - | - |
| 1777646524 | 11.11° C | 93% | 1017.7 hPa | 0 mm | - | - | - |
* Rain latest hour (hover to see other rain measurements)
** Current wind speed in m/s (hover to see current wind gust speed)